LFOT/TUF METAR and TAF weather

Enter ICAO airport designator
Station Type Date Time Source
LFOT METAR 2019/02/21 00:00 UTC NOAA

LFOT 210000Z AUTO 13003KT 6000 NSC 06/05 Q1025 BECMG 2500 BR


Station Type Date Time Source
LFOT Decoded METAR 2019/02/21 00:00 UTC NOAA

Tours, France (LFOT) 47-27N 000-43E 112M
Feb 20, 2019 - 07:00 PM EST / 2019.02.21 0000 UTC
Wind: from the SE (130 degrees) at 3 MPH (3 KT):0
Visibility: 3 mile(s):0
Temperature: 42 F (6 C)
Dew Point: 41 F (5 C)
Relative Humidity: 93%
Pressure (altimeter): 30.27 in. Hg (1025 hPa)
ob: LFOT 210000Z AUTO 13003KT 6000 NSC 06/05 Q1025 BECMG 2500 BR
cycle: 0

Station Type Date Time Source
LFOT TAF 2019/02/20 18:47 UTC NOAA

TAF LFOT 201700Z 2018/2118 VRB02KT CAVOK
BECMG 2021/2023 2000 BR
TEMPO 2100/2111 0300 FG VV///
BECMG 2112/2114 CAVOK


Example: see airport list